sensor_id;sensor_type;location;lat;lon;timestamp;pressure;altitude;pressure_sealevel;temperature;humidity
37848;BME280;23688;33.130;-117.188;2023-06-10T00:00:52;99482.84;;;17.43;96.63
37848;BME280;23688;33.130;-117.188;2023-06-10T00:03:18;99474.88;;;17.35;95.99
37848;BME280;23688;33.130;-117.188;2023-06-10T00:05:45;99489.13;;;17.55;96.43
37848;BME280;23688;33.130;-117.188;2023-06-10T00:08:12;99468.03;;;17.46;95.87
37848;BME280;23688;33.130;-117.188;2023-06-10T00:10:41;99481.22;;;17.51;96.67
37848;BME280;23688;33.130;-117.188;2023-06-10T00:13:07;99489.94;;;17.48;96.52
37848;BME280;23688;33.130;-117.188;2023-06-10T00:15:36;99482.69;;;17.29;96.76
37848;BME280;23688;33.130;-117.188;2023-06-10T00:18:03;99475.59;;;17.25;97.10
37848;BME280;23688;33.130;-117.188;2023-06-10T00:20:30;99477.31;;;17.23;98.60
37848;BME280;23688;33.130;-117.188;2023-06-10T00:23:01;99473.81;;;17.22;97.33
37848;BME280;23688;33.130;-117.188;2023-06-10T00:25:27;99469.25;;;17.07;97.01
37848;BME280;23688;33.130;-117.188;2023-06-10T00:27:54;99475.44;;;17.14;96.70
37848;BME280;23688;33.130;-117.188;2023-06-10T00:30:21;99469.16;;;17.03;97.86
37848;BME280;23688;33.130;-117.188;2023-06-10T00:32:47;99473.63;;;17.07;98.66
37848;BME280;23688;33.130;-117.188;2023-06-10T00:35:13;99473.72;;;17.15;97.75
37848;BME280;23688;33.130;-117.188;2023-06-10T00:37:40;99470.31;;;17.22;97.89
37848;BME280;23688;33.130;-117.188;2023-06-10T00:40:07;99463.50;;;17.36;97.87
37848;BME280;23688;33.130;-117.188;2023-06-10T00:42:35;99466.78;;;17.20;96.70
37848;BME280;23688;33.130;-117.188;2023-06-10T00:45:01;99478.06;;;17.13;98.66
37848;BME280;23688;33.130;-117.188;2023-06-10T00:47:28;99474.50;;;17.07;98.37
37848;BME280;23688;33.130;-117.188;2023-06-10T00:49:54;99484.00;;;17.01;98.90
37848;BME280;23688;33.130;-117.188;2023-06-10T00:52:25;99486.53;;;16.96;100.00
37848;BME280;23688;33.130;-117.188;2023-06-10T00:54:53;99484.72;;;16.92;100.00
37848;BME280;23688;33.130;-117.188;2023-06-10T00:57:20;99487.22;;;16.83;100.00
37848;BME280;23688;33.130;-117.188;2023-06-10T00:59:48;99488.91;;;16.79;100.00
37848;BME280;23688;33.130;-117.188;2023-06-10T01:02:15;99473.22;;;16.81;100.00
37848;BME280;23688;33.130;-117.188;2023-06-10T01:04:42;99486.25;;;16.78;100.00
37848;BME280;23688;33.130;-117.188;2023-06-10T01:10:02;99477.44;;;16.74;100.00
37848;BME280;23688;33.130;-117.188;2023-06-10T01:12:55;99476.56;;;16.75;100.00
37848;BME280;23688;33.130;-117.188;2023-06-10T01:15:25;99475.69;;;16.73;100.00
37848;BME280;23688;33.130;-117.188;2023-06-10T01:17:55;99482.78;;;16.79;100.00
37848;BME280;23688;33.130;-117.188;2023-06-10T01:20:24;99468.81;;;16.80;100.00
37848;BME280;23688;33.130;-117.188;2023-06-10T01:22:53;99472.34;;;16.82;100.00
37848;BME280;23688;33.130;-117.188;2023-06-10T01:25:21;99456.50;;;16.76;100.00
37848;BME280;23688;33.130;-117.188;2023-06-10T01:28:02;99475.06;;;16.89;100.00
37848;BME280;23688;33.130;-117.188;2023-06-10T01:30:37;99469.78;;;16.86;100.00
37848;BME280;23688;33.130;-117.188;2023-06-10T01:33:07;99470.66;;;16.87;100.00
37848;BME280;23688;33.130;-117.188;2023-06-10T01:35:37;99466.00;;;16.69;100.00
37848;BME280;23688;33.130;-117.188;2023-06-10T01:38:05;99475.31;;;16.53;100.00
37848;BME280;23688;33.130;-117.188;2023-06-10T01:40:32;99466.41;;;16.43;100.00
37848;BME280;23688;33.130;-117.188;2023-06-10T01:42:59;99466.50;;;16.48;100.00
37848;BME280;23688;33.130;-117.188;2023-06-10T01:45:28;99482.34;;;16.54;100.00
37848;BME280;23688;33.130;-117.188;2023-06-10T01:47:54;99481.50;;;16.57;100.00
37848;BME280;23688;33.130;-117.188;2023-06-10T01:50:21;99481.69;;;16.67;100.00
37848;BME280;23688;33.130;-117.188;2023-06-10T01:52:47;99467.69;;;16.67;100.00
37848;BME280;23688;33.130;-117.188;2023-06-10T01:55:13;99472.22;;;16.76;100.00
37848;BME280;23688;33.130;-117.188;2023-06-10T01:57:40;99475.84;;;16.81;100.00
37848;BME280;23688;33.130;-117.188;2023-06-10T02:00:10;99480.19;;;16.80;100.00
37848;BME280;23688;33.130;-117.188;2023-06-10T02:02:36;99476.31;;;16.60;100.00
37848;BME280;23688;33.130;-117.188;2023-06-10T02:05:03;99488.47;;;16.55;100.00
37848;BME280;23688;33.130;-117.188;2023-06-10T02:07:29;99471.59;;;16.39;100.00
37848;BME280;23688;33.130;-117.188;2023-06-10T02:09:56;99475.19;;;16.44;100.00
37848;BME280;23688;33.130;-117.188;2023-06-10T02:12:22;99473.22;;;16.32;100.00
37848;BME280;23688;33.130;-117.188;2023-06-10T02:14:48;99482.72;;;16.25;100.00
37848;BME280;23688;33.130;-117.188;2023-06-10T02:17:16;99472.97;;;16.17;100.00
37848;BME280;23688;33.130;-117.188;2023-06-10T02:19:42;99475.72;;;16.26;100.00
37848;BME280;23688;33.130;-117.188;2023-06-10T02:22:09;99485.06;;;16.10;100.00
37848;BME280;23688;33.130;-117.188;2023-06-10T02:24:36;99477.97;;;16.04;100.00
37848;BME280;23688;33.130;-117.188;2023-06-10T02:27:06;99483.97;;;15.99;100.00
37848;BME280;23688;33.130;-117.188;2023-06-10T02:29:36;99493.47;;;15.94;100.00
37848;BME280;23688;33.130;-117.188;2023-06-10T02:32:03;99490.75;;;15.88;100.00
37848;BME280;23688;33.130;-117.188;2023-06-10T02:34:29;99486.53;;;15.96;100.00
37848;BME280;23688;33.130;-117.188;2023-06-10T02:36:56;99501.47;;;16.01;100.00
37848;BME280;23688;33.130;-117.188;2023-06-10T02:39:23;99482.88;;;15.88;100.00
37848;BME280;23688;33.130;-117.188;2023-06-10T02:41:49;99484.50;;;15.82;100.00
37848;BME280;23688;33.130;-117.188;2023-06-10T02:44:15;99493.34;;;15.88;100.00
37848;BME280;23688;33.130;-117.188;2023-06-10T02:46:41;99486.47;;;15.93;100.00
37848;BME280;23688;33.130;-117.188;2023-06-10T02:49:08;99490.78;;;15.92;100.00
37848;BME280;23688;33.130;-117.188;2023-06-10T02:51:34;99481.19;;;15.91;100.00
37848;BME280;23688;33.130;-117.188;2023-06-10T02:54:01;99482.63;;;15.75;100.00
37848;BME280;23688;33.130;-117.188;2023-06-10T02:56:28;99490.56;;;15.80;100.00
37848;BME280;23688;33.130;-117.188;2023-06-10T02:58:54;99484.91;;;16.02;100.00
37848;BME280;23688;33.130;-117.188;2023-06-10T03:01:21;99487.63;;;16.09;100.00
37848;BME280;23688;33.130;-117.188;2023-06-10T03:03:47;99489.31;;;16.05;100.00
37848;BME280;23688;33.130;-117.188;2023-06-10T03:06:16;99487.63;;;16.09;100.00
37848;BME280;23688;33.130;-117.188;2023-06-10T03:08:42;99477.75;;;15.94;100.00
37848;BME280;23688;33.130;-117.188;2023-06-10T03:11:09;99490.00;;;15.96;100.00
37848;BME280;23688;33.130;-117.188;2023-06-10T03:13:36;99489.91;;;15.92;100.00
37848;BME280;23688;33.130;-117.188;2023-06-10T03:16:02;99497.88;;;15.96;100.00
37848;BME280;23688;33.130;-117.188;2023-06-10T03:18:29;99498.00;;;16.04;100.00
37848;BME280;23688;33.130;-117.188;2023-06-10T03:20:55;99500.75;;;16.10;100.00
37848;BME280;23688;33.130;-117.188;2023-06-10T03:23:23;99503.34;;;16.09;100.00
37848;BME280;23688;33.130;-117.188;2023-06-10T03:25:49;99503.88;;;15.91;100.00
37848;BME280;23688;33.130;-117.188;2023-06-10T03:28:15;99513.59;;;15.96;100.00
37848;BME280;23688;33.130;-117.188;2023-06-10T03:30:42;99512.50;;;15.85;100.00
37848;BME280;23688;33.130;-117.188;2023-06-10T03:33:08;99513.22;;;15.78;100.00
37848;BME280;23688;33.130;-117.188;2023-06-10T03:35:34;99520.38;;;15.87;100.00
37848;BME280;23688;33.130;-117.188;2023-06-10T03:38:01;99516.56;;;15.72;100.00
37848;BME280;23688;33.130;-117.188;2023-06-10T03:40:27;99509.53;;;15.70;100.00
37848;BME280;23688;33.130;-117.188;2023-06-10T03:42:56;99508.00;;;15.78;100.00
37848;BME280;23688;33.130;-117.188;2023-06-10T03:45:22;99513.81;;;15.66;100.00
37848;BME280;23688;33.130;-117.188;2023-06-10T03:47:50;99512.94;;;15.66;100.00
37848;BME280;23688;33.130;-117.188;2023-06-10T03:50:16;99518.53;;;15.82;100.00
37848;BME280;23688;33.130;-117.188;2023-06-10T03:52:42;99508.97;;;15.83;100.00
37848;BME280;23688;33.130;-117.188;2023-06-10T03:55:10;99514.22;;;15.84;100.00
37848;BME280;23688;33.130;-117.188;2023-06-10T03:57:37;99513.34;;;15.84;100.00
37848;BME280;23688;33.130;-117.188;2023-06-10T04:00:03;99500.75;;;15.68;100.00
37848;BME280;23688;33.130;-117.188;2023-06-10T04:02:36;99503.47;;;15.71;100.00
37848;BME280;23688;33.130;-117.188;2023-06-10T04:05:02;99504.56;;;15.82;100.00
37848;BME280;23688;33.130;-117.188;2023-06-10T04:07:29;99505.66;;;15.93;100.00
37848;BME280;23688;33.130;-117.188;2023-06-10T04:09:56;99504.81;;;15.93;100.00
37848;BME280;23688;33.130;-117.188;2023-06-10T04:12:22;99509.34;;;16.03;100.00
37848;BME280;23688;33.130;-117.188;2023-06-10T04:14:49;99500.81;;;16.13;100.00
37848;BME280;23688;33.130;-117.188;2023-06-10T04:17:16;99515.63;;;16.11;100.00
37848;BME280;23688;33.130;-117.188;2023-06-10T04:19:43;99500.16;;;16.25;100.00
37848;BME280;23688;33.130;-117.188;2023-06-10T04:22:09;99504.66;;;16.32;100.00
37848;BME280;23688;33.130;-117.188;2023-06-10T04:24:35;99506.69;;;16.47;100.00
37848;BME280;23688;33.130;-117.188;2023-06-10T04:27:05;99513.63;;;16.45;100.00
37848;BME280;23688;33.130;-117.188;2023-06-10T04:29:31;99511.88;;;16.44;100.00
37848;BME280;23688;33.130;-117.188;2023-06-10T04:31:57;99509.91;;;16.34;100.00
37848;BME280;23688;33.130;-117.188;2023-06-10T04:34:24;99508.06;;;16.26;100.00
37848;BME280;23688;33.130;-117.188;2023-06-10T04:36:51;99501.69;;;16.14;100.00
37848;BME280;23688;33.130;-117.188;2023-06-10T04:39:17;99506.84;;;16.08;100.00
37848;BME280;23688;33.130;-117.188;2023-06-10T04:41:44;99502.53;;;16.11;100.00
37848;BME280;23688;33.130;-117.188;2023-06-10T04:44:10;99517.78;;;16.34;100.00
37848;BME280;23688;33.130;-117.188;2023-06-10T04:46:36;99521.31;;;16.36;100.00
37848;BME280;23688;33.130;-117.188;2023-06-10T04:49:03;99520.94;;;16.16;100.00
37848;BME280;23688;33.130;-117.188;2023-06-10T04:51:31;99529.75;;;16.19;100.00
37848;BME280;23688;33.130;-117.188;2023-06-10T04:53:58;99522.13;;;16.32;100.00
37848;BME280;23688;33.130;-117.188;2023-06-10T04:56:30;99516.16;;;16.40;100.00
37848;BME280;23688;33.130;-117.188;2023-06-10T04:58:57;99520.00;;;16.59;100.00
37848;BME280;23688;33.130;-117.188;2023-06-10T05:01:23;99526.16;;;16.61;100.00
37848;BME280;23688;33.130;-117.188;2023-06-10T05:03:50;99519.09;;;16.57;100.00
37848;BME280;23688;33.130;-117.188;2023-06-10T05:06:17;99517.47;;;16.64;100.00
37848;BME280;23688;33.130;-117.188;2023-06-10T05:08:43;99514.94;;;16.70;100.00
37848;BME280;23688;33.130;-117.188;2023-06-10T05:11:09;99499.19;;;16.68;100.00
37848;BME280;23688;33.130;-117.188;2023-06-10T05:13:36;99512.38;;;16.73;100.00
37848;BME280;23688;33.130;-117.188;2023-06-10T05:16:02;99511.44;;;16.69;100.00
37848;BME280;23688;33.130;-117.188;2023-06-10T05:18:29;99514.88;;;16.65;100.00
37848;BME280;23688;33.130;-117.188;2023-06-10T05:20:55;99515.38;;;16.44;100.00
37848;BME280;23688;33.130;-117.188;2023-06-10T05:23:21;99504.31;;;16.61;100.00
37848;BME280;23688;33.130;-117.188;2023-06-10T05:25:47;99510.97;;;16.42;100.00
37848;BME280;23688;33.130;-117.188;2023-06-10T05:28:14;99512.66;;;16.40;100.00
37848;BME280;23688;33.130;-117.188;2023-06-10T05:30:40;99498.25;;;16.15;100.00
37848;BME280;23688;33.130;-117.188;2023-06-10T05:33:06;99505.19;;;16.13;100.00
37848;BME280;23688;33.130;-117.188;2023-06-10T05:35:33;99482.38;;;16.07;100.00
37848;BME280;23688;33.130;-117.188;2023-06-10T05:37:59;99487.13;;;16.26;100.00
37848;BME280;23688;33.130;-117.188;2023-06-10T05:40:25;99493.22;;;16.27;100.00
37848;BME280;23688;33.130;-117.188;2023-06-10T05:42:52;99498.78;;;16.44;100.00
37848;BME280;23688;33.130;-117.188;2023-06-10T05:45:18;99491.88;;;16.49;100.00
37848;BME280;23688;33.130;-117.188;2023-06-10T05:47:44;99501.53;;;16.53;100.00
37848;BME280;23688;33.130;-117.188;2023-06-10T05:50:10;99484.91;;;16.51;100.00
37848;BME280;23688;33.130;-117.188;2023-06-10T05:52:37;99493.66;;;16.53;100.00
37848;BME280;23688;33.130;-117.188;2023-06-10T05:55:06;99503.88;;;16.38;100.00
37848;BME280;23688;33.130;-117.188;2023-06-10T05:57:33;99476.94;;;16.45;100.00
37848;BME280;23688;33.130;-117.188;2023-06-10T05:59:59;99488.47;;;16.55;100.00
37848;BME280;23688;33.130;-117.188;2023-06-10T06:02:26;99492.88;;;16.57;100.00
37848;BME280;23688;33.130;-117.188;2023-06-10T06:04:52;99481.97;;;16.33;100.00
37848;BME280;23688;33.130;-117.188;2023-06-10T06:07:19;99494.44;;;16.46;100.00
37848;BME280;23688;33.130;-117.188;2023-06-10T06:09:47;99493.66;;;16.52;100.00
37848;BME280;23688;33.130;-117.188;2023-06-10T06:12:13;99481.25;;;16.43;100.00
37848;BME280;23688;33.130;-117.188;2023-06-10T06:14:40;99476.16;;;16.49;100.00
37848;BME280;23688;33.130;-117.188;2023-06-10T06:17:06;99471.94;;;16.60;100.00
37848;BME280;23688;33.130;-117.188;2023-06-10T06:19:33;99483.53;;;16.75;100.00
37848;BME280;23688;33.130;-117.188;2023-06-10T06:22:00;99474.91;;;16.79;100.00
37848;BME280;23688;33.130;-117.188;2023-06-10T06:24:26;99475.84;;;16.81;100.00
37848;BME280;23688;33.130;-117.188;2023-06-10T06:26:53;99472.94;;;16.67;100.00
37848;BME280;23688;33.130;-117.188;2023-06-10T06:29:19;99460.75;;;16.69;100.00
37848;BME280;23688;33.130;-117.188;2023-06-10T06:31:45;99464.84;;;16.53;100.00
37848;BME280;23688;33.130;-117.188;2023-06-10T06:34:12;99468.06;;;16.37;100.00
37848;BME280;23688;33.130;-117.188;2023-06-10T06:36:38;99471.75;;;16.48;100.00
37848;BME280;23688;33.130;-117.188;2023-06-10T06:39:04;99457.84;;;16.52;100.00
37848;BME280;23688;33.130;-117.188;2023-06-10T06:41:30;99458.97;;;16.66;100.00
37848;BME280;23688;33.130;-117.188;2023-06-10T06:43:57;99459.38;;;16.41;100.00
37848;BME280;23688;33.130;-117.188;2023-06-10T06:46:23;99460.00;;;16.24;100.00
37848;BME280;23688;33.130;-117.188;2023-06-10T06:48:49;99457.63;;;16.40;100.00
37848;BME280;23688;33.130;-117.188;2023-06-10T06:51:16;99460.44;;;16.51;100.00
37848;BME280;23688;33.130;-117.188;2023-06-10T06:53:42;99461.59;;;16.66;100.00
37848;BME280;23688;33.130;-117.188;2023-06-10T06:56:11;99455.50;;;16.69;100.00
37848;BME280;23688;33.130;-117.188;2023-06-10T06:58:38;99442.13;;;16.52;100.00
37848;BME280;23688;33.130;-117.188;2023-06-10T07:01:04;99451.41;;;16.33;100.00
37848;BME280;23688;33.130;-117.188;2023-06-10T07:03:30;99458.94;;;16.15;100.00
37848;BME280;23688;33.130;-117.188;2023-06-10T07:05:57;99452.66;;;16.07;100.00
37848;BME280;23688;33.130;-117.188;2023-06-10T07:08:24;99452.56;;;16.00;100.00
37848;BME280;23688;33.130;-117.188;2023-06-10T07:10:50;99440.22;;;15.93;100.00
37848;BME280;23688;33.130;-117.188;2023-06-10T07:13:16;99442.88;;;15.96;100.00
37848;BME280;23688;33.130;-117.188;2023-06-10T07:15:43;99425.56;;;16.03;100.00
37848;BME280;23688;33.130;-117.188;2023-06-10T07:18:09;99434.19;;;15.97;100.00
37848;BME280;23688;33.130;-117.188;2023-06-10T07:20:35;99437.50;;;15.89;100.00
37848;BME280;23688;33.130;-117.188;2023-06-10T07:23:02;99430.53;;;15.89;100.00
37848;BME280;23688;33.130;-117.188;2023-06-10T07:25:28;99442.47;;;15.73;100.00
37848;BME280;23688;33.130;-117.188;2023-06-10T07:27:54;99441.50;;;15.70;100.00
37848;BME280;23688;33.130;-117.188;2023-06-10T07:30:20;99437.94;;;15.68;100.00
37848;BME280;23688;33.130;-117.188;2023-06-10T07:32:47;99436.84;;;15.56;100.00
37848;BME280;23688;33.130;-117.188;2023-06-10T07:35:13;99435.94;;;15.54;100.00
37848;BME280;23688;33.130;-117.188;2023-06-10T07:37:40;99424.50;;;15.51;100.00
37848;BME280;23688;33.130;-117.188;2023-06-10T07:40:06;99429.19;;;15.67;100.00
37848;BME280;23688;33.130;-117.188;2023-06-10T07:42:34;99421.94;;;15.95;100.00
37848;BME280;23688;33.130;-117.188;2023-06-10T07:45:02;99410.84;;;16.11;100.00
37848;BME280;23688;33.130;-117.188;2023-06-10T07:47:30;99411.94;;;16.22;100.00
37848;BME280;23688;33.130;-117.188;2023-06-10T07:49:56;99410.94;;;16.16;100.00
37848;BME280;23688;33.130;-117.188;2023-06-10T07:52:22;99401.03;;;15.98;100.00
37848;BME280;23688;33.130;-117.188;2023-06-10T07:54:49;99404.88;;;16.17;100.00
37848;BME280;23688;33.130;-117.188;2023-06-10T07:57:15;99390.19;;;16.28;100.00
37848;BME280;23688;33.130;-117.188;2023-06-10T07:59:42;99380.03;;;16.46;100.00
37848;BME280;23688;33.130;-117.188;2023-06-10T08:02:10;99376.72;;;16.60;100.00
37848;BME280;23688;33.130;-117.188;2023-06-10T08:04:36;99379.34;;;16.60;100.00
37848;BME280;23688;33.130;-117.188;2023-06-10T08:07:04;99386.38;;;16.62;100.00
37848;BME280;23688;33.130;-117.188;2023-06-10T08:09:30;99373.75;;;16.37;100.00
37848;BME280;23688;33.130;-117.188;2023-06-10T08:11:56;99363.28;;;16.38;100.00
37848;BME280;23688;33.130;-117.188;2023-06-10T08:14:23;99362.44;;;16.41;100.00
37848;BME280;23688;33.130;-117.188;2023-06-10T08:16:49;99364.16;;;16.37;100.00
37848;BME280;23688;33.130;-117.188;2023-06-10T08:19:15;99352.63;;;16.27;100.00
37848;BME280;23688;33.130;-117.188;2023-06-10T08:21:42;99355.50;;;16.43;100.00
37848;BME280;23688;33.130;-117.188;2023-06-10T08:24:09;99350.34;;;16.49;100.00
37848;BME280;23688;33.130;-117.188;2023-06-10T08:26:35;99357.91;;;16.29;100.00
37848;BME280;23688;33.130;-117.188;2023-06-10T08:29:02;99353.81;;;16.48;100.00
37848;BME280;23688;33.130;-117.188;2023-06-10T08:31:28;99359.03;;;16.45;100.00
37848;BME280;23688;33.130;-117.188;2023-06-10T08:33:54;99361.25;;;16.20;100.00
37848;BME280;23688;33.130;-117.188;2023-06-10T08:36:21;99357.47;;;16.03;100.00
37848;BME280;23688;33.130;-117.188;2023-06-10T08:38:47;99372.84;;;15.84;100.00
37848;BME280;23688;33.130;-117.188;2023-06-10T08:41:17;99361.66;;;15.93;100.00
37848;BME280;23688;33.130;-117.188;2023-06-10T08:43:48;99369.59;;;15.98;100.00
37848;BME280;23688;33.130;-117.188;2023-06-10T08:46:21;99362.06;;;15.69;100.00
37848;BME280;23688;33.130;-117.188;2023-06-10T08:48:49;99375.16;;;15.69;100.00
37848;BME280;23688;33.130;-117.188;2023-06-10T08:51:23;99371.13;;;15.87;100.00
37848;BME280;23688;33.130;-117.188;2023-06-10T08:54:01;99358.09;;;15.88;100.00
37848;BME280;23688;33.130;-117.188;2023-06-10T08:56:29;99358.47;;;16.10;100.00
37848;BME280;23688;33.130;-117.188;2023-06-10T08:58:57;99345.16;;;15.97;100.00
37848;BME280;23688;33.130;-117.188;2023-06-10T09:01:25;99345.97;;;15.93;100.00
37848;BME280;23688;33.130;-117.188;2023-06-10T09:03:52;99337.19;;;15.91;100.00
37848;BME280;23688;33.130;-117.188;2023-06-10T09:06:19;99347.88;;;16.03;100.00
37848;BME280;23688;33.130;-117.188;2023-06-10T09:08:45;99340.72;;;15.93;100.00
37848;BME280;23688;33.130;-117.188;2023-06-10T09:11:12;99347.63;;;15.90;100.00
37848;BME280;23688;33.130;-117.188;2023-06-10T09:13:39;99342.56;;;15.99;100.00
37848;BME280;23688;33.130;-117.188;2023-06-10T09:16:05;99345.13;;;15.96;100.00
37848;BME280;23688;33.130;-117.188;2023-06-10T09:18:31;99345.28;;;16.05;100.00
37848;BME280;23688;33.130;-117.188;2023-06-10T09:20:58;99335.72;;;16.09;100.00
37848;BME280;23688;33.130;-117.188;2023-06-10T09:23:25;99332.31;;;16.13;100.00
37848;BME280;23688;33.130;-117.188;2023-06-10T09:25:58;99349.66;;;16.06;100.00
37848;BME280;23688;33.130;-117.188;2023-06-10T09:28:24;99342.34;;;15.87;100.00
37848;BME280;23688;33.130;-117.188;2023-06-10T09:31:04;99337.91;;;15.82;100.00
37848;BME280;23688;33.130;-117.188;2023-06-10T09:33:31;99338.69;;;15.75;100.00
37848;BME280;23688;33.130;-117.188;2023-06-10T09:35:59;99333.06;;;15.57;100.00
37848;BME280;23688;33.130;-117.188;2023-06-10T09:38:30;99353.03;;;15.52;100.00
37848;BME280;23688;33.130;-117.188;2023-06-10T09:40:57;99337.91;;;15.37;100.00
37848;BME280;23688;33.130;-117.188;2023-06-10T09:43:39;99331.13;;;15.48;100.00
37848;BME280;23688;33.130;-117.188;2023-06-10T09:46:06;99330.66;;;15.69;100.00
37848;BME280;23688;33.130;-117.188;2023-06-10T09:48:37;99315.16;;;15.78;100.00
37848;BME280;23688;33.130;-117.188;2023-06-10T09:51:09;99325.88;;;15.94;100.00
37848;BME280;23688;33.130;-117.188;2023-06-10T09:53:36;99321.09;;;15.70;100.00
37848;BME280;23688;33.130;-117.188;2023-06-10T09:56:03;99308.88;;;15.70;100.00
37848;BME280;23688;33.130;-117.188;2023-06-10T09:58:38;99293.56;;;15.92;100.00
37848;BME280;23688;33.130;-117.188;2023-06-10T10:01:09;99282.28;;;15.96;100.00
37848;BME280;23688;33.130;-117.188;2023-06-10T10:03:46;99298.19;;;16.08;100.00
37848;BME280;23688;33.130;-117.188;2023-06-10T10:06:15;99283.47;;;16.16;100.00
37848;BME280;23688;33.130;-117.188;2023-06-10T10:08:42;99279.28;;;16.27;100.00
37848;BME280;23688;33.130;-117.188;2023-06-10T10:11:10;99281.94;;;16.29;100.00
37848;BME280;23688;33.130;-117.188;2023-06-10T10:13:37;99279.38;;;16.34;100.00
37848;BME280;23688;33.130;-117.188;2023-06-10T10:16:11;99264.66;;;16.43;100.00
37848;BME280;23688;33.130;-117.188;2023-06-10T10:18:40;99258.53;;;16.43;100.00
37848;BME280;23688;33.130;-117.188;2023-06-10T10:21:12;99262.22;;;16.57;100.00
37848;BME280;23688;33.130;-117.188;2023-06-10T10:24:07;99253.53;;;16.60;100.00
37848;BME280;23688;33.130;-117.188;2023-06-10T10:26:38;99247.47;;;16.64;100.00
37848;BME280;23688;33.130;-117.188;2023-06-10T10:31:42;99224.69;;;16.60;100.00
37848;BME280;23688;33.130;-117.188;2023-06-10T10:35:07;99228.41;;;16.77;100.00
37848;BME280;23688;33.130;-117.188;2023-06-10T10:37:06;99216.13;;;16.75;100.00
37848;BME280;23688;33.130;-117.188;2023-06-10T10:39:34;99210.84;;;16.70;100.00
37848;BME280;23688;33.130;-117.188;2023-06-10T10:42:04;99204.88;;;16.79;100.00
37848;BME280;23688;33.130;-117.188;2023-06-10T10:44:37;99222.34;;;16.78;100.00
37848;BME280;23688;33.130;-117.188;2023-06-10T10:47:10;99212.63;;;16.71;100.00
37848;BME280;23688;33.130;-117.188;2023-06-10T10:49:38;99208.22;;;16.68;100.00
37848;BME280;23688;33.130;-117.188;2023-06-10T10:52:11;99225.84;;;16.79;100.00
37848;BME280;23688;33.130;-117.188;2023-06-10T10:54:43;99228.41;;;16.77;100.00
37848;BME280;23688;33.130;-117.188;2023-06-10T11:02:37;99242.34;;;16.75;100.00
37848;BME280;23688;33.130;-117.188;2023-06-10T11:05:08;99237.03;;;16.67;100.00
37848;BME280;23688;33.130;-117.188;2023-06-10T11:07:35;99235.34;;;16.71;100.00
37848;BME280;23688;33.130;-117.188;2023-06-10T11:10:12;99233.59;;;16.71;100.00
37848;BME280;23688;33.130;-117.188;2023-06-10T11:15:13;99232.72;;;16.71;100.00
37848;BME280;23688;33.130;-117.188;2023-06-10T11:18:11;99235.38;;;16.75;100.00
37848;BME280;23688;33.130;-117.188;2023-06-10T11:20:44;99220.59;;;16.79;100.00
37848;BME280;23688;33.130;-117.188;2023-06-10T11:23:24;99213.53;;;16.75;100.00
37848;BME280;23688;33.130;-117.188;2023-06-10T11:25:50;99214.41;;;16.74;100.00
37848;BME280;23688;33.130;-117.188;2023-06-10T11:28:20;99223.00;;;16.63;100.00
37848;BME280;23688;33.130;-117.188;2023-06-10T11:30:46;99232.41;;;16.47;100.00
37848;BME280;23688;33.130;-117.188;2023-06-10T11:33:17;99233.09;;;16.36;100.00
37848;BME280;23688;33.130;-117.188;2023-06-10T11:35:43;99235.78;;;16.39;100.00
37848;BME280;23688;33.130;-117.188;2023-06-10T11:38:10;99241.13;;;16.46;100.00
37848;BME280;23688;33.130;-117.188;2023-06-10T11:40:39;99233.31;;;16.50;100.00
37848;BME280;23688;33.130;-117.188;2023-06-10T11:43:06;99233.34;;;16.53;100.00
37848;BME280;23688;33.130;-117.188;2023-06-10T11:45:32;99239.28;;;16.41;100.00
37848;BME280;23688;33.130;-117.188;2023-06-10T11:48:00;99240.06;;;16.34;100.00
37848;BME280;23688;33.130;-117.188;2023-06-10T11:50:33;99228.72;;;16.33;100.00
37848;BME280;23688;33.130;-117.188;2023-06-10T11:53:00;99234.63;;;16.18;100.00
37848;BME280;23688;33.130;-117.188;2023-06-10T11:55:40;99240.69;;;16.16;100.00
37848;BME280;23688;33.130;-117.188;2023-06-10T11:58:20;99241.63;;;16.21;100.00
37848;BME280;23688;33.130;-117.188;2023-06-10T12:00:48;99238.94;;;16.16;100.00
37848;BME280;23688;33.130;-117.188;2023-06-10T12:03:15;99234.63;;;16.18;100.00
37848;BME280;23688;33.130;-117.188;2023-06-10T12:06:02;99229.47;;;16.26;100.00
37848;BME280;23688;33.130;-117.188;2023-06-10T12:08:30;99221.16;;;15.94;100.00
37848;BME280;23688;33.130;-117.188;2023-06-10T12:10:57;99238.47;;;15.84;100.00
37848;BME280;23688;33.130;-117.188;2023-06-10T12:13:27;99230.44;;;15.75;100.00
37848;BME280;23688;33.130;-117.188;2023-06-10T12:15:53;99240.34;;;15.94;100.00
37848;BME280;23688;33.130;-117.188;2023-06-10T12:18:22;99259.72;;;16.04;100.00
37848;BME280;23688;33.130;-117.188;2023-06-10T12:20:49;99248.78;;;15.75;100.00
37848;BME280;23688;33.130;-117.188;2023-06-10T12:23:17;99254.75;;;15.69;100.00
37848;BME280;23688;33.130;-117.188;2023-06-10T12:25:55;99264.22;;;15.61;100.00
37848;BME280;23688;33.130;-117.188;2023-06-10T12:28:26;99253.69;;;15.56;100.00
37848;BME280;23688;33.130;-117.188;2023-06-10T12:31:06;99253.78;;;15.62;100.00
37848;BME280;23688;33.130;-117.188;2023-06-10T12:33:33;99265.31;;;15.71;100.00
37848;BME280;23688;33.130;-117.188;2023-06-10T12:35:59;99260.31;;;15.86;100.00
37848;BME280;23688;33.130;-117.188;2023-06-10T12:38:26;99265.63;;;15.91;100.00